createdAt,value
2022-11-20T00:00:01.846Z,93.70
2022-11-20T00:00:40.190Z,93.60
2022-11-20T00:01:15.072Z,93.60
2022-11-20T00:01:50.310Z,93.50
2022-11-20T00:02:25.165Z,93.50
2022-11-20T00:02:58.914Z,93.50
2022-11-20T00:03:33.219Z,93.50
2022-11-20T00:04:07.320Z,93.50
2022-11-20T00:04:40.862Z,93.50
2022-11-20T00:05:15.208Z,93.40
2022-11-20T00:05:48.928Z,93.40
2022-11-20T00:06:24.458Z,93.40
2022-11-20T00:06:59.177Z,93.40
2022-11-20T00:07:35.489Z,93.40
2022-11-20T00:08:10.698Z,93.30
2022-11-20T00:08:44.043Z,93.30
2022-11-20T00:09:19.305Z,93.20
2022-11-20T00:09:53.127Z,93.20
2022-11-20T00:10:26.245Z,93.30
2022-11-20T00:11:05.479Z,93.20
2022-11-20T00:11:43.205Z,93.20
2022-11-20T00:12:18.940Z,93.20
2022-11-20T00:12:53.187Z,93.20
2022-11-20T00:13:27.481Z,93.20
2022-11-20T00:14:02.256Z,93.20
2022-11-20T00:14:35.824Z,93.20
2022-11-20T00:15:11.743Z,93.10
2022-11-20T00:15:45.523Z,93.20
2022-11-20T00:16:20.293Z,93.20
2022-11-20T00:16:54.122Z,93.20
2022-11-20T00:17:27.646Z,93.20
2022-11-20T00:18:01.889Z,93.30
2022-11-20T00:18:36.569Z,93.20
2022-11-20T00:19:12.516Z,93.30
2022-11-20T00:19:47.524Z,93.30
2022-11-20T00:20:21.356Z,93.30
2022-11-20T00:20:55.865Z,93.30
2022-11-20T00:21:30.304Z,93.30
2022-11-20T00:22:04.744Z,93.30
2022-11-20T00:22:41.907Z,93.30
2022-11-20T00:23:16.045Z,93.30
2022-11-20T00:23:49.875Z,93.20
2022-11-20T00:24:24.470Z,93.10
2022-11-20T00:24:59.102Z,93.00
2022-11-20T00:25:33.244Z,92.90
2022-11-20T00:26:08.588Z,92.90
2022-11-20T00:26:42.849Z,92.80
2022-11-20T00:27:16.425Z,92.80
2022-11-20T00:27:51.498Z,92.70
2022-11-20T00:28:24.966Z,92.60
2022-11-20T00:29:00.057Z,92.60
2022-11-20T00:29:35.471Z,92.60
2022-11-20T00:30:11.120Z,92.50
2022-11-20T00:30:47.660Z,92.50
2022-11-20T00:31:22.146Z,92.60
2022-11-20T00:31:55.773Z,92.30
2022-11-20T00:32:29.478Z,92.20
2022-11-20T00:33:03.815Z,92.20
2022-11-20T00:33:37.016Z,92.10
2022-11-20T00:34:10.828Z,92.10
2022-11-20T00:34:45.407Z,92.20
2022-11-20T00:35:19.042Z,92.30
2022-11-20T00:35:53.160Z,92.30
2022-11-20T00:36:28.456Z,92.30
2022-11-20T00:37:02.108Z,92.20
2022-11-20T00:37:35.132Z,92.20
2022-11-20T00:38:11.245Z,92.10
2022-11-20T00:38:45.939Z,92.10
2022-11-20T00:39:21.910Z,92.10
2022-11-20T00:39:55.070Z,92.20
2022-11-20T00:40:28.686Z,92.30
2022-11-20T00:41:03.232Z,92.20
2022-11-20T00:41:36.559Z,92.20
2022-11-20T00:42:09.651Z,92.20
2022-11-20T00:42:44.272Z,92.10
2022-11-20T00:43:18.384Z,92.10
2022-11-20T00:43:52.971Z,92.10
2022-11-20T00:44:26.794Z,92.10
2022-11-20T00:45:01.032Z,92.00
2022-11-20T00:45:35.069Z,92.00
2022-11-20T00:46:10.991Z,92.10
2022-11-20T00:46:45.474Z,92.10
2022-11-20T00:47:18.523Z,92.10
2022-11-20T00:47:52.060Z,92.10
2022-11-20T00:48:26.634Z,92.00
2022-11-20T00:49:04.798Z,92.00
2022-11-20T00:49:39.566Z,91.90
2022-11-20T00:50:13.688Z,91.90
2022-11-20T00:50:47.838Z,91.80
2022-11-20T00:51:21.066Z,91.70
2022-11-20T00:51:55.168Z,91.60
2022-11-20T00:52:27.706Z,91.60
2022-11-20T00:53:02.348Z,91.60
2022-11-20T00:53:37.306Z,91.50
2022-11-20T00:54:11.952Z,91.50
2022-11-20T00:54:46.497Z,91.60
2022-11-20T00:55:20.102Z,91.50
2022-11-20T00:55:57.607Z,91.50
2022-11-20T00:56:32.526Z,91.40
2022-11-20T00:57:05.833Z,91.50
2022-11-20T00:57:39.825Z,91.50
2022-11-20T00:58:14.653Z,91.60
2022-11-20T00:58:49.926Z,91.70
2022-11-20T00:59:24.037Z,91.80
2022-11-20T00:59:58.586Z,91.90
2022-11-20T01:00:31.631Z,91.90
2022-11-20T01:01:07.023Z,92.00
2022-11-20T01:01:42.162Z,91.80
2022-11-20T01:02:17.988Z,91.80
2022-11-20T01:02:52.011Z,91.70
2022-11-20T01:03:27.731Z,91.80
2022-11-20T01:04:01.419Z,91.80
2022-11-20T01:04:34.504Z,91.80
2022-11-20T01:05:10.130Z,91.90
2022-11-20T01:05:43.828Z,91.90
2022-11-20T01:06:18.846Z,91.80
2022-11-20T01:06:53.772Z,91.80
2022-11-20T01:07:27.360Z,91.70
2022-11-20T01:08:01.718Z,91.70
2022-11-20T01:08:36.672Z,91.60
2022-11-20T01:09:14.154Z,91.60
2022-11-20T01:09:48.861Z,91.50
2022-11-20T01:10:24.081Z,91.50
2022-11-20T01:11:00.278Z,91.60
2022-11-20T01:11:34.601Z,91.80
2022-11-20T01:12:09.498Z,91.80
2022-11-20T01:12:44.294Z,91.90
2022-11-20T01:13:37.050Z,92.00
2022-11-20T01:14:12.647Z,92.00
2022-11-20T01:14:46.775Z,92.10
2022-11-20T01:15:20.893Z,92.00
2022-11-20T01:15:54.993Z,91.90
2022-11-20T01:16:30.503Z,91.70
2022-11-20T01:17:04.090Z,91.70
2022-11-20T01:17:37.655Z,91.80
2022-11-20T01:18:11.570Z,91.70
2022-11-20T01:18:47.501Z,91.70
2022-11-20T01:19:24.367Z,91.80
2022-11-20T01:19:58.294Z,91.80
2022-11-20T01:20:31.138Z,91.60
2022-11-20T01:21:05.999Z,91.60
2022-11-20T01:21:41.742Z,91.50
2022-11-20T01:22:15.777Z,91.50
2022-11-20T01:22:49.989Z,91.50
2022-11-20T01:23:25.008Z,91.40
2022-11-20T01:23:59.175Z,91.50
2022-11-20T01:24:34.836Z,91.50
2022-11-20T01:25:09.662Z,91.40
2022-11-20T01:25:43.809Z,91.40
2022-11-20T01:26:19.732Z,91.50
2022-11-20T01:26:53.659Z,91.60
2022-11-20T01:27:27.615Z,91.50
2022-11-20T01:28:01.134Z,91.40
2022-11-20T01:28:35.383Z,91.30
2022-11-20T01:29:09.616Z,91.60
2022-11-20T01:29:43.692Z,91.30
2022-11-20T01:30:17.597Z,91.20
2022-11-20T01:30:53.422Z,91.10
2022-11-20T01:31:27.607Z,91.00
2022-11-20T01:32:00.336Z,91.00
2022-11-20T01:32:35.542Z,91.00
2022-11-20T01:33:09.690Z,91.10
2022-11-20T01:33:43.965Z,91.20
2022-11-20T01:34:21.145Z,91.30
2022-11-20T01:34:54.221Z,91.30
2022-11-20T01:35:27.575Z,91.50
2022-11-20T01:36:06.564Z,91.50
2022-11-20T01:36:40.822Z,91.50
2022-11-20T01:37:15.980Z,91.60
2022-11-20T01:37:51.552Z,91.70
2022-11-20T01:38:25.242Z,91.90
2022-11-20T01:38:59.585Z,91.90
2022-11-20T01:39:35.659Z,92.00
2022-11-20T01:40:09.800Z,92.10
2022-11-20T01:40:44.498Z,92.10
2022-11-20T01:41:32.596Z,92.00
2022-11-20T01:42:24.737Z,92.00
2022-11-20T01:43:24.966Z,91.90
2022-11-20T01:43:58.327Z,92.00
2022-11-20T01:45:14.424Z,92.10
2022-11-20T01:45:59.907Z,92.10
2022-11-20T01:46:35.884Z,92.10
2022-11-20T01:47:11.357Z,92.10
2022-11-20T01:47:46.219Z,92.10
2022-11-20T01:48:20.571Z,92.10
2022-11-20T01:48:57.987Z,92.10
2022-11-20T01:49:36.131Z,92.20
2022-11-20T01:50:12.854Z,92.30
2022-11-20T01:50:48.203Z,92.20
2022-11-20T01:51:26.069Z,92.20
2022-11-20T01:52:01.926Z,92.20
2022-11-20T01:52:38.180Z,92.20
2022-11-20T01:53:13.856Z,92.20
2022-11-20T01:53:47.933Z,92.20
2022-11-20T01:54:24.325Z,92.10
2022-11-20T01:55:00.508Z,92.00
2022-11-20T01:55:39.258Z,92.00
2022-11-20T01:56:14.154Z,91.90
2022-11-20T01:56:48.906Z,91.90
2022-11-20T01:57:23.681Z,91.80
2022-11-20T01:57:59.143Z,91.80
2022-11-20T01:58:34.545Z,91.80
2022-11-20T01:59:10.119Z,91.70
2022-11-20T01:59:47.870Z,91.70
2022-11-20T02:00:24.983Z,91.70
2022-11-20T02:00:58.378Z,91.60
2022-11-20T02:01:32.956Z,91.60
2022-11-20T02:02:07.132Z,91.70
2022-11-20T02:02:42.914Z,91.60
2022-11-20T02:03:19.436Z,91.60
2022-11-20T02:03:52.060Z,91.60
2022-11-20T02:04:26.508Z,91.70
2022-11-20T02:05:03.897Z,91.80
2022-11-20T02:05:38.821Z,91.80
2022-11-20T02:06:14.581Z,91.80
2022-11-20T02:06:50.528Z,91.80
2022-11-20T02:07:25.162Z,91.80
2022-11-20T02:07:59.575Z,91.80
2022-11-20T02:08:33.539Z,91.80
2022-11-20T02:09:07.136Z,91.80
2022-11-20T02:09:40.266Z,91.80
2022-11-20T02:10:16.466Z,91.80
2022-11-20T02:10:50.536Z,91.80
2022-11-20T02:11:24.715Z,91.70
2022-11-20T02:11:59.985Z,91.70
2022-11-20T02:12:52.960Z,91.60
2022-11-20T02:13:44.309Z,91.60
2022-11-20T02:14:18.745Z,91.60
2022-11-20T02:14:52.834Z,91.70
2022-11-20T02:15:30.316Z,91.70
2022-11-20T02:16:06.206Z,91.70
2022-11-20T02:16:41.356Z,91.70
2022-11-20T02:17:15.460Z,91.60
2022-11-20T02:17:49.439Z,91.60
2022-11-20T02:18:23.212Z,91.70
2022-11-20T02:18:58.946Z,91.80
2022-11-20T02:19:33.357Z,91.80
2022-11-20T02:20:07.941Z,91.80
2022-11-20T02:20:43.159Z,91.80
2022-11-20T02:21:23.621Z,91.80
2022-11-20T02:22:02.599Z,91.70
2022-11-20T02:22:39.902Z,91.70
2022-11-20T02:23:15.337Z,91.80
2022-11-20T02:24:09.066Z,91.70
2022-11-20T02:24:43.944Z,91.80
2022-11-20T02:25:16.514Z,91.50
2022-11-20T02:25:52.615Z,91.40
2022-11-20T02:26:27.360Z,91.50
2022-11-20T02:27:03.261Z,91.50
2022-11-20T02:27:36.994Z,91.60
2022-11-20T02:28:10.837Z,91.70
2022-11-20T02:28:44.355Z,91.60
2022-11-20T02:29:19.213Z,91.60
2022-11-20T02:29:54.003Z,91.60
2022-11-20T02:30:29.357Z,91.70
2022-11-20T02:31:02.887Z,91.70
2022-11-20T02:31:40.263Z,91.70
2022-11-20T02:32:20.508Z,91.70
2022-11-20T02:32:55.087Z,91.60
2022-11-20T02:33:29.727Z,91.60
2022-11-20T02:34:04.916Z,91.50
2022-11-20T02:34:38.854Z,91.50
2022-11-20T02:35:32.937Z,91.50
2022-11-20T02:36:10.400Z,91.50
2022-11-20T02:36:45.755Z,91.50
2022-11-20T02:37:19.659Z,91.50
2022-11-20T02:37:54.285Z,91.50
2022-11-20T02:38:28.478Z,91.50
2022-11-20T02:39:02.734Z,91.50
2022-11-20T02:39:36.262Z,91.50
2022-11-20T02:40:12.452Z,91.50
2022-11-20T02:40:45.576Z,91.40
2022-11-20T02:41:19.504Z,91.40
2022-11-20T02:41:54.948Z,91.40
2022-11-20T02:42:28.558Z,91.40
2022-11-20T02:43:01.993Z,91.70
2022-11-20T02:43:37.286Z,91.50
2022-11-20T02:44:11.454Z,91.50
2022-11-20T02:44:45.618Z,91.50
2022-11-20T02:45:19.649Z,91.50
2022-11-20T02:45:54.440Z,91.40
2022-11-20T02:46:28.672Z,91.30
2022-11-20T02:47:03.196Z,91.30
2022-11-20T02:47:37.285Z,91.20
2022-11-20T02:48:11.388Z,91.20
2022-11-20T02:48:44.611Z,91.20
2022-11-20T02:49:19.211Z,91.10
2022-11-20T02:49:53.539Z,91.00
2022-11-20T02:50:26.589Z,90.90
2022-11-20T02:51:00.807Z,90.80
2022-11-20T02:51:36.006Z,90.80
2022-11-20T02:52:09.328Z,90.80
2022-11-20T02:52:43.578Z,90.90
2022-11-20T02:53:19.187Z,90.90
2022-11-20T02:53:53.929Z,90.90
2022-11-20T02:54:27.634Z,90.90
2022-11-20T02:55:02.351Z,91.00
2022-11-20T02:55:37.422Z,91.00
2022-11-20T02:56:12.307Z,91.00
2022-11-20T02:56:47.481Z,90.90
2022-11-20T02:57:20.443Z,91.00
2022-11-20T02:57:53.673Z,91.00
2022-11-20T02:58:28.351Z,91.00
2022-11-20T02:59:01.528Z,91.00
2022-11-20T02:59:34.734Z,91.00
2022-11-20T03:00:10.960Z,91.00
2022-11-20T03:00:44.188Z,91.10
2022-11-20T03:01:17.470Z,91.00
2022-11-20T03:01:52.096Z,91.10
2022-11-20T03:02:26.217Z,91.10
2022-11-20T03:02:59.512Z,91.00
2022-11-20T03:03:35.431Z,91.00
2022-11-20T03:04:09.395Z,91.00
2022-11-20T03:04:43.420Z,91.10
2022-11-20T03:05:18.206Z,90.90
2022-11-20T03:05:52.218Z,90.90
2022-11-20T03:06:25.220Z,91.20
2022-11-20T03:07:01.093Z,91.00
2022-11-20T03:07:34.253Z,91.10
2022-11-20T03:08:08.334Z,91.10
2022-11-20T03:08:43.335Z,91.10
2022-11-20T03:09:16.468Z,91.20
2022-11-20T03:09:49.446Z,91.20
2022-11-20T03:10:24.014Z,91.20
2022-11-20T03:10:58.005Z,91.20
2022-11-20T03:11:32.970Z,91.20
2022-11-20T03:12:07.977Z,91.20
2022-11-20T03:12:41.972Z,91.20
2022-11-20T03:13:15.433Z,91.10
2022-11-20T03:13:49.781Z,91.10
2022-11-20T03:14:22.403Z,91.00
2022-11-20T03:14:55.891Z,90.90
2022-11-20T03:15:31.559Z,90.90
2022-11-20T03:16:08.538Z,90.90
2022-11-20T03:16:43.261Z,90.90
2022-11-20T03:17:18.332Z,90.90
2022-11-20T03:17:54.631Z,91.00
2022-11-20T03:18:30.549Z,91.00
2022-11-20T03:19:04.563Z,90.90
2022-11-20T03:19:38.613Z,90.80
2022-11-20T03:20:13.709Z,91.00
2022-11-20T03:20:48.116Z,91.00
2022-11-20T03:21:21.652Z,91.00
2022-11-20T03:21:56.272Z,90.90
2022-11-20T03:22:32.022Z,90.90
2022-11-20T03:23:05.482Z,90.90
2022-11-20T03:23:40.760Z,90.80
2022-11-20T03:24:13.979Z,90.80
2022-11-20T03:24:47.701Z,90.80
2022-11-20T03:25:21.730Z,90.80
2022-11-20T03:25:55.512Z,90.80
2022-11-20T03:26:30.495Z,90.80
2022-11-20T03:27:04.787Z,90.80
2022-11-20T03:27:39.038Z,90.90
2022-11-20T03:28:13.916Z,90.90
2022-11-20T03:28:48.317Z,90.80
2022-11-20T03:29:22.554Z,90.90
2022-11-20T03:29:57.511Z,90.90
2022-11-20T03:30:31.608Z,91.00
2022-11-20T03:31:09.063Z,91.00
2022-11-20T03:31:45.062Z,91.00
2022-11-20T03:32:18.217Z,91.00
2022-11-20T03:32:54.535Z,91.00
2022-11-20T03:33:30.276Z,91.00
2022-11-20T03:34:04.573Z,91.00
2022-11-20T03:34:39.770Z,91.00
2022-11-20T03:35:12.566Z,91.00
2022-11-20T03:35:46.825Z,91.00
2022-11-20T03:36:22.250Z,91.00
2022-11-20T03:36:56.521Z,91.00
2022-11-20T03:37:31.991Z,91.00
2022-11-20T03:38:07.156Z,91.00
2022-11-20T03:38:41.056Z,91.00
2022-11-20T03:39:15.148Z,91.00
2022-11-20T03:39:49.684Z,91.00
2022-11-20T03:40:24.272Z,91.00
2022-11-20T03:41:00.470Z,91.00
2022-11-20T03:41:38.625Z,90.90
2022-11-20T03:42:31.993Z,90.90
2022-11-20T03:43:06.636Z,90.80
2022-11-20T03:43:41.419Z,90.80
2022-11-20T03:44:14.936Z,90.80
2022-11-20T03:44:48.564Z,90.80
2022-11-20T03:45:22.529Z,90.80
2022-11-20T03:45:56.166Z,90.80
2022-11-20T03:46:29.542Z,90.80
2022-11-20T03:47:03.588Z,90.80
2022-11-20T03:47:37.207Z,90.70
2022-11-20T03:48:11.285Z,90.70
2022-11-20T03:48:51.178Z,90.70
2022-11-20T03:49:27.487Z,90.70
2022-11-20T03:50:00.454Z,90.60
2022-11-20T03:50:34.585Z,90.60
2022-11-20T03:51:08.621Z,90.50
2022-11-20T03:51:43.320Z,90.50
2022-11-20T03:52:17.404Z,90.40
2022-11-20T03:52:51.913Z,90.40
2022-11-20T03:53:26.495Z,90.30
2022-11-20T03:54:00.889Z,90.30
2022-11-20T03:54:34.999Z,90.30
2022-11-20T03:55:09.326Z,90.40
2022-11-20T03:55:43.592Z,90.40
2022-11-20T03:56:19.775Z,90.40
2022-11-20T03:56:53.497Z,90.40
2022-11-20T03:57:27.116Z,90.40
2022-11-20T03:58:02.613Z,90.40
2022-11-20T03:58:36.954Z,90.40
2022-11-20T03:59:12.793Z,90.40
2022-11-20T03:59:46.415Z,90.40
2022-11-20T04:00:20.177Z,90.40
2022-11-20T04:00:55.418Z,90.40
2022-11-20T04:01:31.120Z,90.40
2022-11-20T04:02:05.389Z,90.40
2022-11-20T04:02:39.838Z,90.40
2022-11-20T04:03:14.434Z,90.40
2022-11-20T04:03:48.517Z,90.30
2022-11-20T04:04:23.425Z,90.30
2022-11-20T04:04:57.418Z,90.20
2022-11-20T04:05:31.659Z,90.20
2022-11-20T04:06:07.172Z,90.10
2022-11-20T04:06:42.709Z,90.10
2022-11-20T04:07:16.038Z,90.10
2022-11-20T04:07:50.058Z,90.10
2022-11-20T04:08:26.721Z,90.10
2022-11-20T04:08:59.765Z,90.10
2022-11-20T04:09:32.849Z,90.10
2022-11-20T04:10:07.960Z,90.10
2022-11-20T04:10:41.642Z,90.10
2022-11-20T04:11:16.498Z,90.10
2022-11-20T04:11:51.670Z,90.20
2022-11-20T04:12:24.894Z,90.30
2022-11-20T04:12:57.945Z,90.40
2022-11-20T04:13:31.469Z,90.50
2022-11-20T04:14:06.141Z,90.80
2022-11-20T04:14:38.965Z,90.70
2022-11-20T04:15:13.918Z,90.70
2022-11-20T04:15:48.590Z,90.80
2022-11-20T04:16:23.873Z,90.90
2022-11-20T04:16:57.670Z,90.90
2022-11-20T04:17:31.373Z,91.00
2022-11-20T04:18:04.885Z,90.90
2022-11-20T04:18:38.948Z,91.00
2022-11-20T04:19:13.598Z,91.10
2022-11-20T04:19:48.782Z,91.10
2022-11-20T04:20:23.475Z,91.10
2022-11-20T04:20:58.146Z,91.20
2022-11-20T04:21:32.554Z,91.10
2022-11-20T04:22:07.176Z,91.10
2022-11-20T04:22:41.338Z,91.10
2022-11-20T04:23:16.090Z,91.10
2022-11-20T04:23:51.411Z,91.00
2022-11-20T04:24:25.285Z,91.00
2022-11-20T04:24:59.993Z,90.90
2022-11-20T04:25:34.485Z,90.90
2022-11-20T04:26:08.655Z,90.80
2022-11-20T04:26:41.778Z,90.80
2022-11-20T04:27:17.099Z,90.80
2022-11-20T04:27:51.108Z,90.90
2022-11-20T04:28:25.196Z,90.90
2022-11-20T04:29:00.771Z,90.90
2022-11-20T04:29:33.322Z,90.80
2022-11-20T04:30:07.917Z,90.80
2022-11-20T04:30:42.203Z,90.70
2022-11-20T04:31:16.026Z,90.70
2022-11-20T04:31:50.080Z,90.70
2022-11-20T04:32:25.133Z,90.60
2022-11-20T04:32:58.685Z,90.60
2022-11-20T04:33:34.439Z,90.60
2022-11-20T04:34:09.292Z,90.60
2022-11-20T04:34:43.990Z,90.70
2022-11-20T04:35:16.846Z,90.70
2022-11-20T04:35:50.374Z,90.70
2022-11-20T04:36:24.669Z,90.70
2022-11-20T04:36:58.316Z,90.80
2022-11-20T04:37:32.830Z,90.80
2022-11-20T04:38:06.301Z,90.80
2022-11-20T04:38:40.242Z,90.90
2022-11-20T04:39:16.724Z,90.80
2022-11-20T04:39:50.758Z,90.70
2022-11-20T04:40:24.353Z,90.70
2022-11-20T04:40:58.447Z,90.70
2022-11-20T04:41:34.035Z,90.70
2022-11-20T04:42:28.161Z,90.70
2022-11-20T04:43:03.749Z,90.60
2022-11-20T04:43:37.278Z,90.60
2022-11-20T04:44:10.981Z,90.50
2022-11-20T04:44:44.983Z,90.50
2022-11-20T04:45:19.138Z,90.50
2022-11-20T04:45:54.204Z,90.50
2022-11-20T04:46:28.832Z,90.50
2022-11-20T04:47:02.991Z,90.50
2022-11-20T04:47:37.078Z,90.60
2022-11-20T04:48:10.956Z,90.60
2022-11-20T04:48:44.919Z,90.50
2022-11-20T04:49:19.682Z,90.50
2022-11-20T04:49:54.169Z,90.40
2022-11-20T04:50:28.624Z,90.40
2022-11-20T04:51:05.144Z,90.30
2022-11-20T04:51:38.991Z,90.20
2022-11-20T04:52:12.515Z,90.10
2022-11-20T04:52:47.150Z,90.00
2022-11-20T04:53:21.052Z,90.00
2022-11-20T04:53:55.626Z,90.10
2022-11-20T04:54:30.540Z,90.10
2022-11-20T04:55:03.853Z,90.20
2022-11-20T04:55:37.961Z,90.30
2022-11-20T04:56:13.405Z,90.40
2022-11-20T04:56:46.457Z,90.40
2022-11-20T04:57:19.242Z,90.40
2022-11-20T04:57:53.510Z,90.40
2022-11-20T04:58:27.031Z,90.40
2022-11-20T04:59:02.231Z,90.70
2022-11-20T04:59:37.807Z,90.40
2022-11-20T05:00:12.441Z,90.40
2022-11-20T05:00:45.485Z,90.30
2022-11-20T05:01:21.418Z,90.20
2022-11-20T05:01:55.145Z,90.10
2022-11-20T05:02:28.870Z,90.00
2022-11-20T05:03:03.135Z,90.00
2022-11-20T05:03:39.810Z,89.90
2022-11-20T05:04:16.419Z,89.90
2022-11-20T05:04:51.280Z,89.90
2022-11-20T05:05:25.329Z,89.90
2022-11-20T05:06:02.070Z,89.90
2022-11-20T05:06:36.936Z,89.90
2022-11-20T05:07:11.622Z,89.70
2022-11-20T05:07:45.233Z,89.70
2022-11-20T05:08:21.047Z,89.90
2022-11-20T05:08:55.127Z,89.90
2022-11-20T05:09:29.366Z,90.00
2022-11-20T05:10:03.594Z,90.00
2022-11-20T05:10:37.209Z,90.00
2022-11-20T05:11:11.254Z,90.00
2022-11-20T05:11:51.212Z,90.00
2022-11-20T05:12:25.668Z,90.00
2022-11-20T05:12:59.177Z,89.80
2022-11-20T05:13:33.786Z,89.90
2022-11-20T05:14:07.799Z,89.80
2022-11-20T05:14:40.884Z,89.80
2022-11-20T05:15:16.410Z,90.00
2022-11-20T05:15:50.312Z,90.00
2022-11-20T05:16:25.659Z,90.00
2022-11-20T05:17:00.720Z,90.10
2022-11-20T05:17:34.377Z,90.00
2022-11-20T05:18:07.738Z,90.00
2022-11-20T05:18:42.365Z,90.00
2022-11-20T05:19:16.497Z,89.80
2022-11-20T05:19:53.222Z,89.80
2022-11-20T05:20:27.367Z,89.90
2022-11-20T05:20:59.929Z,89.80
2022-11-20T05:21:35.109Z,89.80
2022-11-20T05:22:09.720Z,89.90
2022-11-20T05:22:43.523Z,90.00
2022-11-20T05:23:18.191Z,89.90
2022-11-20T05:23:52.309Z,89.80
2022-11-20T05:24:26.496Z,89.80
2022-11-20T05:25:03.236Z,89.80
2022-11-20T05:25:36.868Z,89.70
2022-11-20T05:26:14.259Z,89.60
2022-11-20T05:26:49.501Z,89.50
2022-11-20T05:27:23.999Z,89.30
2022-11-20T05:27:57.760Z,89.20
2022-11-20T05:28:32.821Z,89.10
2022-11-20T05:29:06.522Z,89.10
2022-11-20T05:29:41.006Z,89.10
2022-11-20T05:30:16.246Z,89.00
2022-11-20T05:30:49.910Z,89.00
2022-11-20T05:31:27.765Z,89.00
2022-11-20T05:32:02.625Z,89.10
2022-11-20T05:32:35.460Z,89.10
2022-11-20T05:33:09.631Z,89.10
2022-11-20T05:33:45.852Z,89.10
2022-11-20T05:34:19.441Z,89.20
2022-11-20T05:34:53.614Z,89.30
2022-11-20T05:35:29.053Z,89.40
2022-11-20T05:36:02.171Z,89.50
2022-11-20T05:36:36.870Z,89.60
2022-11-20T05:37:11.244Z,89.90
2022-11-20T05:37:45.019Z,90.00
2022-11-20T05:38:19.124Z,90.00
2022-11-20T05:38:58.014Z,90.00
2022-11-20T05:39:35.303Z,90.00
2022-11-20T05:40:11.303Z,90.00
2022-11-20T05:40:47.317Z,90.00
2022-11-20T05:41:20.975Z,89.80
2022-11-20T05:42:20.372Z,89.70
2022-11-20T05:42:55.124Z,89.50
2022-11-20T05:43:28.837Z,89.30
2022-11-20T05:44:02.644Z,89.40
2022-11-20T05:44:37.098Z,89.30
2022-11-20T05:45:12.422Z,89.30
2022-11-20T05:45:55.021Z,89.40
2022-11-20T05:46:29.673Z,89.20
2022-11-20T05:47:03.923Z,89.20
2022-11-20T05:47:38.434Z,89.30
2022-11-20T05:48:12.486Z,89.40
2022-11-20T05:48:47.151Z,89.40
2022-11-20T05:49:21.454Z,89.20
2022-11-20T05:49:55.634Z,89.20
2022-11-20T05:50:30.529Z,89.30
2022-11-20T05:51:06.176Z,89.40
2022-11-20T05:51:40.252Z,89.40
2022-11-20T05:52:15.062Z,89.30
2022-11-20T05:52:49.313Z,89.00
2022-11-20T05:53:27.416Z,89.10
2022-11-20T05:54:02.135Z,89.00
2022-11-20T05:54:35.596Z,89.10
2022-11-20T05:55:12.580Z,89.00
2022-11-20T05:55:47.004Z,88.90
2022-11-20T05:56:21.516Z,88.90
2022-11-20T05:56:56.166Z,88.90
2022-11-20T05:57:30.421Z,88.90
2022-11-20T05:58:04.133Z,89.00
2022-11-20T05:58:40.235Z,89.10
2022-11-20T05:59:13.290Z,89.00
2022-11-20T05:59:47.535Z,89.00
2022-11-20T06:00:22.302Z,89.00
2022-11-20T06:00:55.889Z,89.00
2022-11-20T06:01:29.711Z,88.90
2022-11-20T06:02:04.395Z,88.80
2022-11-20T06:02:38.523Z,88.90
2022-11-20T06:03:12.024Z,88.90
2022-11-20T06:03:49.114Z,89.00
2022-11-20T06:04:23.354Z,88.90
2022-11-20T06:04:58.068Z,88.80
2022-11-20T06:05:32.052Z,88.70
2022-11-20T06:06:08.023Z,88.70
2022-11-20T06:06:42.450Z,88.70
2022-11-20T06:07:17.458Z,88.50
2022-11-20T06:07:51.600Z,88.70
2022-11-20T06:08:25.228Z,88.80
2022-11-20T06:09:00.591Z,88.80
2022-11-20T06:09:34.706Z,88.90
2022-11-20T06:10:09.517Z,89.00
2022-11-20T06:10:45.505Z,89.00
2022-11-20T06:11:18.630Z,89.00
2022-11-20T06:11:54.069Z,89.10
2022-11-20T06:12:28.220Z,89.10
2022-11-20T06:13:01.688Z,89.00
2022-11-20T06:13:41.786Z,89.00
2022-11-20T06:14:16.532Z,89.10
2022-11-20T06:14:49.614Z,89.60
2022-11-20T06:15:24.734Z,89.10
2022-11-20T06:15:58.293Z,89.20
2022-11-20T06:16:31.443Z,89.20
2022-11-20T06:17:06.749Z,89.20
2022-11-20T06:17:40.827Z,89.30
2022-11-20T06:18:14.486Z,89.20
2022-11-20T06:18:49.756Z,89.30
2022-11-20T06:19:23.628Z,89.20
2022-11-20T06:19:57.316Z,89.20
2022-11-20T06:20:31.968Z,89.10
2022-11-20T06:21:07.541Z,89.00
2022-11-20T06:21:41.143Z,88.80
2022-11-20T06:22:15.929Z,88.70
2022-11-20T06:22:48.469Z,88.60
2022-11-20T06:23:21.606Z,88.30
2022-11-20T06:23:56.009Z,88.10
2022-11-20T06:24:29.697Z,87.90
2022-11-20T06:25:04.716Z,87.80
2022-11-20T06:25:40.514Z,87.70
2022-11-20T06:26:16.931Z,87.60
2022-11-20T06:26:50.991Z,87.30
2022-11-20T06:27:25.256Z,87.50
2022-11-20T06:27:58.994Z,87.70
2022-11-20T06:28:34.286Z,87.80
2022-11-20T06:29:08.913Z,87.80
2022-11-20T06:29:41.420Z,87.70
2022-11-20T06:30:16.124Z,87.70
2022-11-20T06:30:50.496Z,87.80
2022-11-20T06:31:24.007Z,87.70
2022-11-20T06:31:57.526Z,87.60
2022-11-20T06:32:31.173Z,87.50
2022-11-20T06:33:04.922Z,87.40
2022-11-20T06:33:41.038Z,87.20
2022-11-20T06:34:15.638Z,87.30
2022-11-20T06:34:48.089Z,87.40
2022-11-20T06:35:22.406Z,87.30
2022-11-20T06:36:01.050Z,87.40
2022-11-20T06:36:36.736Z,87.30
2022-11-20T06:37:10.751Z,87.40
2022-11-20T06:37:44.129Z,87.40
2022-11-20T06:38:17.811Z,87.40
2022-11-20T06:38:51.194Z,87.50
2022-11-20T06:39:25.330Z,87.50
2022-11-20T06:40:00.566Z,87.50
2022-11-20T06:40:35.236Z,87.50
2022-11-20T06:41:09.145Z,87.50
2022-11-20T06:41:46.191Z,87.50
2022-11-20T06:42:20.301Z,87.50
2022-11-20T06:42:55.208Z,87.40
2022-11-20T06:43:30.719Z,87.50
2022-11-20T06:44:05.744Z,87.50
2022-11-20T06:44:39.559Z,87.60
2022-11-20T06:45:13.288Z,87.70
2022-11-20T06:45:46.547Z,87.70
2022-11-20T06:46:22.795Z,87.70
2022-11-20T06:46:56.856Z,87.70
2022-11-20T06:47:30.514Z,87.70
2022-11-20T06:48:05.284Z,87.70
2022-11-20T06:48:39.393Z,87.80
2022-11-20T06:49:13.275Z,87.80
2022-11-20T06:49:47.028Z,87.80
2022-11-20T06:50:21.621Z,87.70
2022-11-20T06:50:55.365Z,87.60
2022-11-20T06:51:29.006Z,87.40
2022-11-20T06:52:03.038Z,87.30
2022-11-20T06:52:42.300Z,87.30
2022-11-20T06:53:17.535Z,87.20
2022-11-20T06:53:52.893Z,87.00
2022-11-20T06:54:27.081Z,87.00
2022-11-20T06:55:00.139Z,87.00
2022-11-20T06:55:34.911Z,86.90
2022-11-20T06:56:08.629Z,86.70
2022-11-20T06:56:43.286Z,86.70
2022-11-20T06:57:19.012Z,86.60
2022-11-20T06:57:55.837Z,86.30
2022-11-20T06:58:30.905Z,86.10
2022-11-20T06:59:05.739Z,85.80
2022-11-20T06:59:41.471Z,85.70
2022-11-20T07:00:15.594Z,85.70
2022-11-20T07:00:49.732Z,85.70
2022-11-20T07:01:23.451Z,85.70
2022-11-20T07:01:57.699Z,85.80
2022-11-20T07:02:32.630Z,85.70
2022-11-20T07:03:06.731Z,85.70
2022-11-20T07:03:41.478Z,85.80
2022-11-20T07:04:14.804Z,85.90
2022-11-20T07:04:47.815Z,86.00
2022-11-20T07:05:21.938Z,86.00
2022-11-20T07:05:56.484Z,86.00
2022-11-20T07:06:30.014Z,85.90
2022-11-20T07:07:03.166Z,85.80
2022-11-20T07:07:36.549Z,85.80
2022-11-20T07:08:11.212Z,85.80
2022-11-20T07:08:44.822Z,85.80
2022-11-20T07:09:19.421Z,85.70
2022-11-20T07:09:53.350Z,85.70
2022-11-20T07:10:27.566Z,85.70
2022-11-20T07:11:01.404Z,85.80
2022-11-20T07:11:36.510Z,85.80
2022-11-20T07:12:10.196Z,85.90
2022-11-20T07:12:50.057Z,85.90
2022-11-20T07:13:24.688Z,85.90
2022-11-20T07:13:59.360Z,85.90
2022-11-20T07:14:33.825Z,85.90
2022-11-20T07:15:10.128Z,85.90
2022-11-20T07:15:43.817Z,85.80
2022-11-20T07:16:18.894Z,85.50
2022-11-20T07:16:52.542Z,85.70
2022-11-20T07:17:26.995Z,86.00
2022-11-20T07:18:02.380Z,86.10
2022-11-20T07:18:36.116Z,86.10
2022-11-20T07:19:09.196Z,86.20
2022-11-20T07:19:45.065Z,86.00
2022-11-20T07:20:19.535Z,86.10
2022-11-20T07:20:53.074Z,86.10
2022-11-20T07:21:27.626Z,86.00
2022-11-20T07:22:01.794Z,86.00
2022-11-20T07:22:35.164Z,86.00
2022-11-20T07:23:09.656Z,85.80
2022-11-20T07:23:43.717Z,85.70
2022-11-20T07:24:16.855Z,85.90
2022-11-20T07:24:51.466Z,86.00
2022-11-20T07:25:25.693Z,85.80
2022-11-20T07:25:59.880Z,85.90
2022-11-20T07:26:35.162Z,86.00
2022-11-20T07:27:09.265Z,85.80
2022-11-20T07:27:43.742Z,85.80
2022-11-20T07:28:19.146Z,85.60
2022-11-20T07:28:54.195Z,85.60
2022-11-20T07:29:28.383Z,85.50
2022-11-20T07:30:01.924Z,85.50